Terminal Aerodrome Forecast
Issued by NWS Charleston, WV

Current Version | Previous Version | Text Only | Print | Product List | Glossary Off
Versions: 1 2 3 4 5 6 7 8 9 10 11 12 13 14 15 16 17 18 19 20 21 22 23

068
FTUS41 KRLX 180904 AAA
TAFEKN
TAF AMD
KEKN 180904Z 1809/1906 25004KT P6SM FEW035
     FM181600 25006KT P6SM BKN050
     FM190300 24009G16KT P6SM -SHRA BKN025=

USA.gov is the U.S. government's official web portal to all federal, state and local government web resources and services.